Terminal Aerodrome Forecast
Issued by NWS El Paso, TX

Home | Current Version | Previous Version | Text Only | Print | Product List | Glossary On
Versions: 1 2 3 4 5 6 7 8 9 10 11 12 13 14 15
124
FTUS44 KEPZ 240524
TAFELP
TAF
KELP 240524Z 2406/2506 36011KT P6SM SCT070 BKN120 BKN250
     FM240900 09008KT P6SM SCT060 BKN100 BKN200
     FM241400 22009KT P6SM FEW060 BKN100 BKN200
     FM242000 16007KT P6SM SCT070 BKN110 BKN200=

USA.gov is the U.S. government's official web portal to all federal, state and local government web resources and services.